createdAt,value
2023-03-06T00:00:48.502Z,100301.28
2023-03-06T00:03:16.836Z,100289.69
2023-03-06T00:05:44.539Z,100285.31
2023-03-06T00:08:11.975Z,100281.78
2023-03-06T00:10:40.346Z,100293.38
2023-03-06T00:13:13.007Z,100287.16
2023-03-06T00:15:40.347Z,100291.69
2023-03-06T00:18:08.012Z,100297.91
2023-03-06T00:20:36.130Z,100285.44
2023-03-06T00:23:03.608Z,100288.13
2023-03-06T00:25:30.898Z,100290.81
2023-03-06T00:27:58.199Z,100293.50
2023-03-06T00:30:25.797Z,100291.81
2023-03-06T00:32:53.599Z,100287.28
2023-03-06T00:35:21.109Z,100281.06
2023-03-06T00:37:48.479Z,100291.81
2023-03-06T00:40:18.904Z,100283.75
2023-03-06T00:42:46.593Z,100281.06
2023-03-06T00:45:14.515Z,100282.91
2023-03-06T00:47:42.094Z,100283.06
2023-03-06T00:50:10.495Z,100284.75
2023-03-06T00:52:37.859Z,100265.97
2023-03-06T00:55:06.278Z,100266.97
2023-03-06T00:57:33.609Z,100266.97
2023-03-06T01:00:02.273Z,100262.44
2023-03-06T01:02:29.746Z,100273.19
2023-03-06T01:04:57.303Z,100271.50
2023-03-06T01:07:27.240Z,100269.66
2023-03-06T01:09:54.769Z,100262.56
2023-03-06T01:12:23.554Z,100258.91
2023-03-06T01:14:51.585Z,100257.34
2023-03-06T01:17:18.929Z,100260.03
2023-03-06T01:19:46.264Z,100253.66
2023-03-06T01:22:14.262Z,100246.44
2023-03-06T01:24:41.514Z,100248.28
2023-03-06T01:27:09.007Z,100250.97
2023-03-06T01:29:36.299Z,100240.41
2023-03-06T01:32:03.967Z,100244.75
2023-03-06T01:34:31.345Z,100249.28
2023-03-06T01:36:58.642Z,100235.88
2023-03-06T01:39:25.909Z,100239.56
2023-03-06T01:41:53.149Z,100233.19
2023-03-06T01:44:20.418Z,100233.34
2023-03-06T01:46:47.771Z,100236.03
2023-03-06T01:49:27.564Z,100229.81
2023-03-06T01:51:57.589Z,100236.88
2023-03-06T01:54:33.557Z,100227.97
2023-03-06T01:57:05.749Z,100228.94
2023-03-06T01:59:37.359Z,100235.19
2023-03-06T02:02:08.474Z,100228.94
2023-03-06T02:04:38.970Z,100224.56
2023-03-06T02:07:07.642Z,100226.41
2023-03-06T02:09:36.392Z,100227.25
2023-03-06T02:12:10.272Z,100228.09
2023-03-06T02:14:39.269Z,100219.19
2023-03-06T02:17:08.775Z,100214.66
2023-03-06T02:19:57.741Z,100217.34
2023-03-06T02:22:33.166Z,100203.09
2023-03-06T02:25:15.783Z,100207.63
2023-03-06T02:27:43.142Z,100210.31
2023-03-06T02:30:15.198Z,100210.31
2023-03-06T02:32:42.477Z,100212.16
2023-03-06T02:35:19.496Z,100201.41
2023-03-06T02:37:47.170Z,100200.56
2023-03-06T02:40:18.993Z,100202.25
2023-03-06T02:42:48.888Z,100204.94
2023-03-06T02:45:24.365Z,100198.72
2023-03-06T02:47:51.625Z,100197.88
2023-03-06T02:50:18.959Z,100200.56
2023-03-06T02:52:46.274Z,100197.03
2023-03-06T02:55:13.685Z,100198.72
2023-03-06T02:57:41.096Z,100201.41
2023-03-06T03:00:10.201Z,100190.81
2023-03-06T03:02:37.594Z,100206.06
2023-03-06T03:05:05.412Z,100195.31
2023-03-06T03:07:32.948Z,100186.44
2023-03-06T03:10:00.399Z,100189.13
2023-03-06T03:12:28.827Z,100194.47
2023-03-06T03:14:56.791Z,100189.94
2023-03-06T03:17:24.533Z,100189.13
2023-03-06T03:19:52.318Z,100194.47
2023-03-06T03:22:20.595Z,100191.78
2023-03-06T03:24:48.264Z,100195.47
2023-03-06T03:27:15.650Z,100197.16
2023-03-06T03:29:43.164Z,100191.97
2023-03-06T03:32:10.826Z,100183.06
2023-03-06T03:34:38.288Z,100177.69
2023-03-06T03:37:06.287Z,100190.13
2023-03-06T03:39:33.643Z,100186.72
2023-03-06T03:42:03.587Z,100184.03
2023-03-06T03:44:30.967Z,100174.25
2023-03-06T03:46:58.803Z,100169.72
2023-03-06T03:49:26.189Z,100167.91
2023-03-06T03:51:54.005Z,100158.06
2023-03-06T03:54:23.273Z,100163.44
2023-03-06T03:56:53.342Z,100165.25
2023-03-06T03:59:25.628Z,100161.69
2023-03-06T04:02:21.718Z,100173.28
2023-03-06T04:05:05.059Z,100168.91
2023-03-06T04:07:32.746Z,100160.00
2023-03-06T04:10:00.562Z,100151.94
2023-03-06T04:12:29.487Z,100149.25
2023-03-06T04:14:56.763Z,100152.09
2023-03-06T04:17:24.168Z,100150.25
2023-03-06T04:19:52.802Z,100155.63
2023-03-06T04:22:20.147Z,100160.16
2023-03-06T04:24:49.836Z,100166.38
2023-03-06T04:27:18.282Z,100163.69
2023-03-06T04:29:45.862Z,100165.53
2023-03-06T04:32:13.308Z,100168.22
2023-03-06T04:34:40.588Z,100172.75
2023-03-06T04:37:18.425Z,100173.72
2023-03-06T04:39:46.472Z,100169.19
2023-03-06T04:42:13.776Z,100181.75
2023-03-06T04:44:41.043Z,100179.09
2023-03-06T04:47:08.476Z,100180.91
2023-03-06T04:49:36.141Z,100180.91
2023-03-06T04:52:04.399Z,100181.75
2023-03-06T04:54:31.765Z,100182.78
2023-03-06T04:56:59.382Z,100180.91
2023-03-06T04:59:26.655Z,100172.03
2023-03-06T05:01:53.999Z,100170.19
2023-03-06T05:04:21.407Z,100159.44
2023-03-06T05:06:48.642Z,100160.28
2023-03-06T05:09:15.874Z,100169.19
2023-03-06T05:11:43.202Z,100165.66
2023-03-06T05:14:10.534Z,100160.28
2023-03-06T05:16:37.849Z,100147.69
2023-03-06T05:19:05.139Z,100146.88
2023-03-06T05:21:32.414Z,100134.28
2023-03-06T05:23:59.793Z,100136.97
2023-03-06T05:26:27.033Z,100145.03
2023-03-06T05:28:55.290Z,100141.50
2023-03-06T05:31:22.532Z,100154.06
2023-03-06T05:33:49.700Z,100159.44
2023-03-06T05:36:16.968Z,100158.59
2023-03-06T05:38:44.231Z,100157.75
2023-03-06T05:41:13.296Z,100155.91
2023-03-06T05:43:40.677Z,100151.56
2023-03-06T05:46:08.178Z,100148.88
2023-03-06T05:48:37.590Z,100148.88
2023-03-06T05:51:05.607Z,100146.19
2023-03-06T05:53:33.346Z,100150.72
2023-03-06T05:56:03.884Z,100147.19
2023-03-06T05:58:32.838Z,100147.19
2023-03-06T06:01:00.770Z,100144.50
2023-03-06T06:03:28.069Z,100140.94
2023-03-06T06:05:55.365Z,100142.78
2023-03-06T06:08:22.648Z,100148.16
2023-03-06T06:10:52.818Z,100146.47
2023-03-06T06:13:20.616Z,100145.47
2023-03-06T06:15:47.887Z,100155.38
2023-03-06T06:18:15.204Z,100154.53
2023-03-06T06:20:42.525Z,100155.38
2023-03-06T06:23:10.963Z,100160.75
2023-03-06T06:25:38.243Z,100158.06
2023-03-06T06:28:06.124Z,100159.91
2023-03-06T06:30:34.073Z,100162.59
2023-03-06T06:33:01.378Z,100169.78
2023-03-06T06:35:28.654Z,100167.09
2023-03-06T06:37:56.086Z,100168.13
2023-03-06T06:40:24.394Z,100166.28
2023-03-06T06:42:52.640Z,100168.13
2023-03-06T06:45:19.966Z,100159.22
2023-03-06T06:47:49.859Z,100164.59
2023-03-06T06:50:17.120Z,100161.91
2023-03-06T06:52:44.394Z,100161.91
2023-03-06T06:55:12.636Z,100159.22
2023-03-06T06:57:40.575Z,100165.44
2023-03-06T07:00:09.535Z,100160.06
2023-03-06T07:02:36.821Z,100155.66
2023-03-06T07:05:05.552Z,100160.06
2023-03-06T07:07:38.020Z,100164.59
2023-03-06T07:10:14.507Z,100163.72
2023-03-06T07:12:42.375Z,100152.97
2023-03-06T07:15:13.280Z,100159.22
2023-03-06T07:17:40.557Z,100154.69
2023-03-06T07:20:08.930Z,100152.84
2023-03-06T07:22:50.004Z,100152.00
2023-03-06T07:25:18.678Z,100143.94
2023-03-06T07:27:52.677Z,100148.47
2023-03-06T07:30:21.582Z,100138.72
2023-03-06T07:32:51.725Z,100150.16
2023-03-06T07:35:20.688Z,100148.47
2023-03-06T07:37:48.456Z,100150.16
2023-03-06T07:40:15.768Z,100146.63
2023-03-06T07:42:43.203Z,100154.53
2023-03-06T07:45:13.697Z,100150.16
2023-03-06T07:47:41.279Z,100152.84
2023-03-06T07:50:09.041Z,100154.53
2023-03-06T07:52:36.481Z,100158.22
2023-03-06T07:55:04.510Z,100159.91
2023-03-06T07:57:31.753Z,100153.84
2023-03-06T07:59:58.992Z,100162.59
2023-03-06T08:02:26.302Z,100162.59
2023-03-06T08:04:54.866Z,100161.56
2023-03-06T08:07:22.786Z,100167.78
2023-03-06T08:09:50.060Z,100167.66
2023-03-06T08:12:17.349Z,100162.28
2023-03-06T08:14:44.576Z,100159.75
2023-03-06T08:17:11.846Z,100160.59
2023-03-06T08:19:39.102Z,100163.13
2023-03-06T08:22:06.649Z,100166.50
2023-03-06T08:24:34.915Z,100159.31
2023-03-06T08:27:02.344Z,100160.84
2023-03-06T08:29:31.024Z,100172.31
2023-03-06T08:31:59.326Z,100165.78
2023-03-06T08:34:26.769Z,100160.28
2023-03-06T08:36:54.093Z,100159.13
2023-03-06T08:39:21.503Z,100165.03
2023-03-06T08:41:48.731Z,100166.75
2023-03-06T08:44:16.055Z,100157.69
2023-03-06T08:46:43.367Z,100164.75
2023-03-06T08:49:12.669Z,100164.59
2023-03-06T08:51:39.975Z,100160.94
2023-03-06T08:54:07.456Z,100160.94
2023-03-06T08:56:34.841Z,100152.03
2023-03-06T08:59:04.529Z,100155.69
2023-03-06T09:01:35.115Z,100161.06
2023-03-06T09:04:06.114Z,100153.16
2023-03-06T09:06:35.953Z,100153.31
2023-03-06T09:09:04.232Z,100158.69
2023-03-06T09:11:31.704Z,100160.38
2023-03-06T09:13:59.424Z,100158.69
2023-03-06T09:16:26.901Z,100162.34
2023-03-06T09:18:54.370Z,100154.47
2023-03-06T09:21:23.086Z,100158.16
2023-03-06T09:23:50.831Z,100160.84
2023-03-06T09:26:18.716Z,100153.63
2023-03-06T09:28:46.681Z,100155.47
2023-03-06T09:31:17.729Z,100157.16
2023-03-06T09:33:45.141Z,100153.63
2023-03-06T09:36:18.224Z,100152.63
2023-03-06T09:38:47.785Z,100144.56
2023-03-06T09:41:35.636Z,100151.47
2023-03-06T09:44:06.286Z,100153.16
2023-03-06T09:46:51.670Z,100149.47
2023-03-06T09:49:23.108Z,100153.84
2023-03-06T09:51:58.482Z,100143.97
2023-03-06T09:54:33.614Z,100148.94
2023-03-06T09:57:00.905Z,100145.84
2023-03-06T09:59:28.635Z,100144.31
2023-03-06T10:02:14.642Z,100146.16
2023-03-06T10:04:46.301Z,100141.50
2023-03-06T10:07:28.267Z,100137.78
2023-03-06T10:10:01.845Z,100143.00
2023-03-06T10:12:56.660Z,100148.25
2023-03-06T10:15:33.437Z,100155.13
2023-03-06T10:18:03.207Z,100157.69
2023-03-06T10:21:07.394Z,100146.94
2023-03-06T10:23:53.055Z,100144.09
2023-03-06T10:26:25.314Z,100140.41
2023-03-06T10:29:10.992Z,100137.72
2023-03-06T10:31:49.534Z,100136.88
2023-03-06T10:34:28.659Z,100133.06
2023-03-06T10:37:02.493Z,100128.53
2023-03-06T10:39:30.067Z,100121.31
2023-03-06T10:41:57.328Z,100120.31
2023-03-06T10:44:24.760Z,100109.56
2023-03-06T10:46:53.692Z,100110.28
2023-03-06T10:49:23.618Z,100112.13
2023-03-06T10:52:00.373Z,100103.06
2023-03-06T10:54:29.506Z,100103.91
2023-03-06T10:56:56.882Z,100108.25
2023-03-06T10:59:28.359Z,100100.22
2023-03-06T11:01:58.718Z,100095.84
2023-03-06T11:04:31.565Z,100099.38
2023-03-06T11:07:14.518Z,100089.47
2023-03-06T11:09:43.948Z,100094.84
2023-03-06T11:12:26.755Z,100088.63
2023-03-06T11:15:18.839Z,100086.78
2023-03-06T11:17:52.694Z,100087.66
2023-03-06T11:20:20.257Z,100088.63
2023-03-06T11:23:05.074Z,100087.47
2023-03-06T11:25:56.573Z,100083.78
2023-03-06T11:28:25.713Z,100081.09
2023-03-06T11:31:08.680Z,100081.94
2023-03-06T11:33:46.851Z,100082.94
2023-03-06T11:36:30.224Z,100079.25
2023-03-06T11:38:57.456Z,100069.34
2023-03-06T11:41:39.545Z,100073.75
2023-03-06T11:44:13.874Z,100076.44
2023-03-06T11:46:48.628Z,100073.75
2023-03-06T11:49:24.987Z,100073.59
2023-03-06T11:52:00.270Z,100065.53
2023-03-06T11:54:27.540Z,100063.84
2023-03-06T11:57:04.296Z,100057.47
2023-03-06T12:00:08.781Z,100049.41
2023-03-06T12:03:00.250Z,100050.25
2023-03-06T12:05:46.731Z,100042.06
2023-03-06T12:08:25.026Z,100032.28
2023-03-06T12:10:57.826Z,100028.63
2023-03-06T12:13:55.010Z,100023.38
2023-03-06T12:16:45.040Z,100017.00
2023-03-06T12:19:31.035Z,100000.88
2023-03-06T12:22:31.187Z,100000.06
2023-03-06T12:25:31.175Z,99999.91
2023-03-06T12:28:35.747Z,99999.91
2023-03-06T12:31:25.017Z,100006.13
2023-03-06T12:34:11.474Z,99992.53
2023-03-06T12:36:47.625Z,99990.69
2023-03-06T12:39:56.335Z,99984.34
2023-03-06T12:42:38.431Z,99982.63
2023-03-06T12:45:29.561Z,99983.63
2023-03-06T12:47:58.045Z,99977.25
2023-03-06T12:50:31.227Z,99973.88
2023-03-06T12:53:03.110Z,99978.41
2023-03-06T12:55:40.120Z,99981.13
2023-03-06T12:58:51.066Z,99976.72
2023-03-06T13:01:51.960Z,99970.66
2023-03-06T13:04:45.591Z,99966.44
2023-03-06T13:07:15.626Z,99966.44
2023-03-06T13:09:54.762Z,99961.06
2023-03-06T13:12:38.447Z,99962.06
2023-03-06T13:15:29.794Z,99958.38
2023-03-06T13:17:57.650Z,99950.31
2023-03-06T13:20:35.106Z,99952.03
2023-03-06T13:23:33.384Z,99952.88
2023-03-06T13:26:05.010Z,99942.81
2023-03-06T13:28:50.275Z,99945.34
2023-03-06T13:31:46.587Z,99938.13
2023-03-06T13:34:32.232Z,99939.81
2023-03-06T13:37:20.131Z,99947.69
2023-03-06T13:39:56.932Z,99936.94
2023-03-06T13:42:31.751Z,99937.78
2023-03-06T13:45:15.109Z,99928.75
2023-03-06T13:48:15.455Z,99926.91
2023-03-06T13:50:47.889Z,99930.44
2023-03-06T13:53:36.913Z,99921.38
2023-03-06T13:56:30.967Z,99921.38
2023-03-06T13:59:25.877Z,99916.81
2023-03-06T14:01:59.059Z,99913.16
2023-03-06T14:04:38.618Z,99914.97
2023-03-06T14:07:20.184Z,99905.94
2023-03-06T14:09:57.288Z,99907.63
2023-03-06T14:12:38.440Z,99908.63
2023-03-06T14:15:20.383Z,99904.94
2023-03-06T14:18:01.731Z,99903.91
2023-03-06T14:20:59.472Z,99896.69
2023-03-06T14:23:42.443Z,99894.00
2023-03-06T14:26:22.096Z,99897.53
2023-03-06T14:28:52.242Z,99889.47
2023-03-06T14:31:24.563Z,99890.34
2023-03-06T14:33:53.335Z,99890.34
2023-03-06T14:36:24.327Z,99891.19
2023-03-06T14:38:54.144Z,99892.03
2023-03-06T14:41:39.697Z,99889.34
2023-03-06T14:44:17.819Z,99889.34
2023-03-06T14:46:47.027Z,99891.03
2023-03-06T14:49:16.230Z,99887.50
2023-03-06T14:51:46.850Z,99888.34
2023-03-06T14:54:26.087Z,99885.66
2023-03-06T14:57:06.034Z,99886.47
2023-03-06T14:59:41.340Z,99879.25
2023-03-06T15:02:17.596Z,99868.50
2023-03-06T15:04:49.508Z,99872.91
2023-03-06T15:07:22.828Z,99870.22
2023-03-06T15:09:53.403Z,99868.50
2023-03-06T15:12:20.836Z,99869.22
2023-03-06T15:14:49.217Z,99865.69
2023-03-06T15:17:19.444Z,99864.84
2023-03-06T15:19:48.959Z,99860.31
2023-03-06T15:22:30.838Z,99857.44
2023-03-06T15:25:23.320Z,99853.94
2023-03-06T15:27:56.933Z,99861.16
2023-03-06T15:30:36.419Z,99853.09
2023-03-06T15:33:26.561Z,99858.47
2023-03-06T15:36:02.274Z,99860.13
2023-03-06T15:38:37.217Z,99853.94
2023-03-06T15:41:06.962Z,99852.91
2023-03-06T15:43:41.387Z,99861.81
2023-03-06T15:46:08.934Z,99854.75
2023-03-06T15:48:36.271Z,99849.41
2023-03-06T15:51:04.783Z,99848.56
2023-03-06T15:53:32.701Z,99856.44
2023-03-06T15:56:00.361Z,99848.38
2023-03-06T15:58:33.266Z,99843.84
2023-03-06T16:01:00.702Z,99842.16
2023-03-06T16:03:30.958Z,99843.00
2023-03-06T16:05:58.855Z,99833.09
2023-03-06T16:08:26.198Z,99839.34
2023-03-06T16:10:53.445Z,99830.41
2023-03-06T16:13:31.231Z,99836.66
2023-03-06T16:15:58.555Z,99834.81
2023-03-06T16:18:25.844Z,99835.63
2023-03-06T16:20:53.134Z,99834.81
2023-03-06T16:23:20.322Z,99833.97
2023-03-06T16:25:49.396Z,99832.13
2023-03-06T16:28:16.872Z,99833.78
2023-03-06T16:30:45.054Z,99836.47
2023-03-06T16:33:13.372Z,99832.78
2023-03-06T16:35:41.354Z,99832.97
2023-03-06T16:38:10.187Z,99836.47
2023-03-06T16:40:41.349Z,99835.63
2023-03-06T16:43:10.609Z,99835.63
2023-03-06T16:45:40.284Z,99843.53
2023-03-06T16:48:10.529Z,99842.69
2023-03-06T16:50:39.882Z,99847.22
2023-03-06T16:53:08.054Z,99843.69
2023-03-06T16:55:35.615Z,99848.06
2023-03-06T16:58:03.023Z,99842.88
2023-03-06T17:00:33.155Z,99841.00
2023-03-06T17:03:02.410Z,99849.91
2023-03-06T17:05:33.214Z,99854.44
2023-03-06T17:08:00.563Z,99856.97
2023-03-06T17:10:27.805Z,99854.28
2023-03-06T17:12:56.420Z,99855.81
2023-03-06T17:15:23.995Z,99861.34
2023-03-06T17:17:52.335Z,99863.03
2023-03-06T17:20:20.229Z,99859.50
2023-03-06T17:22:47.538Z,99866.56
2023-03-06T17:25:15.086Z,99863.19
2023-03-06T17:27:42.367Z,99871.25
2023-03-06T17:30:10.331Z,99868.56
2023-03-06T17:32:40.799Z,99865.72
2023-03-06T17:35:09.672Z,99869.56
2023-03-06T17:37:37.042Z,99877.63
2023-03-06T17:40:08.110Z,99880.31
2023-03-06T17:42:35.424Z,99877.81
2023-03-06T17:45:02.618Z,99885.03
2023-03-06T17:47:29.903Z,99885.03
2023-03-06T17:49:57.186Z,99893.91
2023-03-06T17:52:24.400Z,99893.91
2023-03-06T17:54:51.733Z,99892.06
2023-03-06T17:57:18.966Z,99902.81
2023-03-06T17:59:48.614Z,99904.50
2023-03-06T18:02:15.929Z,99903.50
2023-03-06T18:04:43.254Z,99907.00
2023-03-06T18:07:10.910Z,99906.19
2023-03-06T18:09:38.583Z,99910.41
2023-03-06T18:12:05.991Z,99913.75
2023-03-06T18:14:33.352Z,99910.09
2023-03-06T18:17:00.649Z,99924.38
2023-03-06T18:19:27.881Z,99923.34
2023-03-06T18:21:55.148Z,99917.13
2023-03-06T18:24:23.419Z,99914.28
2023-03-06T18:26:50.657Z,99910.75
2023-03-06T18:29:17.945Z,99909.78
2023-03-06T18:31:46.931Z,99915.16
2023-03-06T18:34:14.928Z,99916.81
2023-03-06T18:36:43.635Z,99919.66
2023-03-06T18:39:13.827Z,99916.94
2023-03-06T18:41:42.070Z,99915.72
2023-03-06T18:44:13.923Z,99917.53
2023-03-06T18:46:41.531Z,99927.38
2023-03-06T18:49:09.318Z,99925.47
2023-03-06T18:51:36.613Z,99926.50
2023-03-06T18:54:05.568Z,99933.53
2023-03-06T18:56:33.454Z,99927.16
2023-03-06T18:59:03.104Z,99935.03
2023-03-06T19:01:31.450Z,99933.91
2023-03-06T19:04:00.799Z,99936.41
2023-03-06T19:06:28.918Z,99943.34
2023-03-06T19:08:58.771Z,99940.47
2023-03-06T19:11:26.906Z,99938.66
2023-03-06T19:13:54.724Z,99933.28
2023-03-06T19:16:24.495Z,99938.66
2023-03-06T19:18:52.099Z,99934.13
2023-03-06T19:21:21.883Z,99933.28
2023-03-06T19:23:49.492Z,99932.41
2023-03-06T19:26:20.850Z,99931.44
2023-03-06T19:28:48.980Z,99936.81
2023-03-06T19:31:25.165Z,99943.03
2023-03-06T19:33:54.177Z,99934.13
2023-03-06T19:36:27.365Z,99937.66
2023-03-06T19:38:56.458Z,99941.19
2023-03-06T19:41:24.165Z,99944.03
2023-03-06T19:43:53.804Z,99925.06
2023-03-06T19:46:22.947Z,99930.44
2023-03-06T19:48:55.039Z,99928.75
2023-03-06T19:51:22.351Z,99936.81
2023-03-06T19:53:49.599Z,99934.13
2023-03-06T19:56:20.639Z,99935.09
2023-03-06T19:58:48.079Z,99936.81
2023-03-06T20:01:20.528Z,99929.72
2023-03-06T20:03:48.048Z,99929.72
2023-03-06T20:06:18.510Z,99943.16
2023-03-06T20:08:46.814Z,99937.78
2023-03-06T20:11:26.101Z,99936.94
2023-03-06T20:13:54.121Z,99944.03
2023-03-06T20:16:21.356Z,99943.16
2023-03-06T20:18:48.549Z,99938.78
2023-03-06T20:21:16.908Z,99935.09
2023-03-06T20:23:44.252Z,99926.22
2023-03-06T20:26:13.740Z,99936.13
2023-03-06T20:28:42.428Z,99936.94
2023-03-06T20:31:18.271Z,99937.97
2023-03-06T20:33:51.001Z,99935.09
2023-03-06T20:36:24.004Z,99941.47
2023-03-06T20:38:51.577Z,99932.41
2023-03-06T20:41:25.224Z,99935.09
2023-03-06T20:43:53.203Z,99936.94
2023-03-06T20:46:22.194Z,99932.41
2023-03-06T20:48:52.207Z,99927.91
2023-03-06T20:51:22.357Z,99934.97
2023-03-06T20:53:51.779Z,99938.66
2023-03-06T20:56:21.466Z,99931.44
2023-03-06T20:58:48.719Z,99933.28
2023-03-06T21:01:24.747Z,99935.09
2023-03-06T21:03:52.363Z,99934.13
2023-03-06T21:06:20.378Z,99944.88
2023-03-06T21:08:47.745Z,99939.50
2023-03-06T21:11:15.879Z,99941.34
2023-03-06T21:13:43.453Z,99940.47
2023-03-06T21:16:17.010Z,99948.41
2023-03-06T21:18:44.817Z,99953.91
2023-03-06T21:21:14.972Z,99949.41
2023-03-06T21:23:42.538Z,99960.16
2023-03-06T21:26:14.613Z,99956.47
2023-03-06T21:28:42.205Z,99962.84
2023-03-06T21:31:11.575Z,99955.63
2023-03-06T21:33:39.470Z,99960.16
2023-03-06T21:36:07.560Z,99963.69
2023-03-06T21:38:34.940Z,99956.59
2023-03-06T21:41:08.535Z,99954.78
2023-03-06T21:43:35.797Z,99960.16
2023-03-06T21:46:03.415Z,99949.41
2023-03-06T21:48:31.205Z,99948.53
2023-03-06T21:51:09.828Z,99950.38
2023-03-06T21:53:37.737Z,99957.59
2023-03-06T21:56:05.473Z,99954.91
2023-03-06T21:58:33.063Z,99954.91
2023-03-06T22:01:00.467Z,99954.91
2023-03-06T22:03:31.060Z,99961.13
2023-03-06T22:06:11.987Z,99963.69
2023-03-06T22:08:40.476Z,99965.53
2023-03-06T22:11:10.117Z,99965.53
2023-03-06T22:13:37.616Z,99964.53
2023-03-06T22:16:05.742Z,99961.84
2023-03-06T22:18:33.685Z,99961.66
2023-03-06T22:21:09.406Z,99962.38
2023-03-06T22:23:37.193Z,99964.03
2023-03-06T22:26:06.558Z,99967.72
2023-03-06T22:28:34.673Z,99961.34
2023-03-06T22:31:26.976Z,99964.88
2023-03-06T22:33:55.783Z,99960.34
2023-03-06T22:36:24.054Z,99963.88
2023-03-06T22:38:55.758Z,99965.72
2023-03-06T22:41:23.520Z,99969.41
2023-03-06T22:43:50.839Z,99961.34
2023-03-06T22:46:18.475Z,99972.09
2023-03-06T22:48:46.053Z,99973.94
2023-03-06T22:51:15.983Z,99970.44
2023-03-06T22:53:43.852Z,99976.47
2023-03-06T22:56:14.215Z,99968.72
2023-03-06T22:58:41.497Z,99967.72
2023-03-06T23:01:17.271Z,99974.09
2023-03-06T23:03:46.848Z,99971.41
2023-03-06T23:06:22.719Z,99972.28
2023-03-06T23:09:17.399Z,99967.72
2023-03-06T23:12:03.195Z,99981.84
2023-03-06T23:14:51.076Z,99980.16
2023-03-06T23:17:36.852Z,99987.38
2023-03-06T23:20:22.415Z,99987.38
2023-03-06T23:23:08.330Z,99984.69
2023-03-06T23:25:41.685Z,99987.53
2023-03-06T23:28:10.281Z,99984.84
2023-03-06T23:30:41.733Z,99986.69
2023-03-06T23:33:09.646Z,99986.84
2023-03-06T23:35:38.987Z,99987.69
2023-03-06T23:38:06.623Z,99991.50
2023-03-06T23:40:34.789Z,99993.22
2023-03-06T23:43:02.821Z,99994.22
2023-03-06T23:45:30.349Z,99999.56
2023-03-06T23:47:58.142Z,99995.22
2023-03-06T23:50:26.286Z,99998.75
2023-03-06T23:52:54.295Z,100001.59
2023-03-06T23:55:22.013Z,99997.22
2023-03-06T23:57:49.406Z,100002.59
